Terminal Aerodrome Forecast
Issued by NWS North Platte, NE

Home | Current Version | Previous Version | Graphics & Text | Print | Product List | Glossary On
Versions: 1 2 3 4 5 6 7 8 9 10 11 12 13
000
FTUS43 KLBF 171120
TAFVTN
TAF
KVTN 171120Z 1712/1812 VRB03KT P6SM SCT007 OVC020
      TEMPO 1712/1714 BKN006
     FM171400 34006KT P6SM OVC012
     FM171700 31005KT P6SM OVC025
     FM180100 19007KT P6SM BKN035=

USA.gov is the U.S. government's official web portal to all federal, state and local government web resources and services.